Otterlo, Netherlands
Current Conditions -  °F | °C
As of 5:25 AM on Monday 20 Oct 2014 (Local Time) from EHDL Reporting Station
Light Rain Light Rain  
Wind Chill: 57°   Ceiling: 4100
Heat Index: 57°   Visibility: 6mi
Dew Point: 55°   Wind: 14mph
Humidity: 94%   Direction: 230°SW
Pressure: 29.94"   Gusts: NA
Location:  52.1°N, 5.77°E
Report Text: EHDL 200325Z AUTO 23012KT 9999 -RA FEW009 SCT026 BKN041 14/13 Q1014 BLU
Loading
Personal Weather Stations






























Interactive Weather Map
Tropical Storm Tracking
New forecast layout! Learn more

10-Day Weather Forecast

Advertisements
Track Severe Weather on mobile